Time;durP1;ratioP1;P1;durP2;ratioP2;P2;SDS_P1;SDS_P2;PMS_P1;PMS_P2;Temp;Humidity;BMP_temperature;BMP_pressure;BME280_temperature;BME280_humidity;BME280_pressure;Samples;Min_cycle;Max_cycle;Signal;HPM_P1;HPM_P2
2022/06/27 00:02:06;;;;;;;7.50;2.70;;;25.80;69.30;;;;;;5024795;28;20247;-78
2022/06/27 00:04:34;;;;;;;9.20;3.30;;;25.80;69.60;;;;;;4993387;28;20212;-78
2022/06/27 00:07:01;;;;;;;5.97;3.40;;;25.80;69.90;;;;;;4995378;28;20216;-78
2022/06/27 00:09:28;;;;;;;14.30;3.77;;;25.80;70.10;;;;;;4998889;28;20230;-78
2022/06/27 00:11:57;;;;;;;5.93;3.10;;;25.70;70.30;;;;;;5003004;28;20205;-79
2022/06/27 00:14:24;;;;;;;12.00;3.40;;;25.70;70.60;;;;;;5004036;28;20201;-79
2022/06/27 00:16:51;;;;;;;8.90;3.07;;;25.70;70.90;;;;;;5013855;28;20612;-78
2022/06/27 00:19:18;;;;;;;12.97;3.63;;;25.60;70.90;;;;;;4996684;28;20204;-78
2022/06/27 00:21:46;;;;;;;8.73;3.43;;;25.60;70.80;;;;;;5013725;28;20220;-78
2022/06/27 00:24:13;;;;;;;8.07;3.57;;;25.60;71.10;;;;;;4997500;28;20215;-78
2022/06/27 00:26:40;;;;;;;9.20;4.07;;;25.50;71.60;;;;;;4996304;28;20757;-78
2022/06/27 00:29:08;;;;;;;6.57;3.17;;;25.40;72.00;;;;;;4996337;28;20231;-78
2022/06/27 00:31:36;;;;;;;7.10;3.37;;;25.40;72.40;;;;;;5007189;28;20208;-78
2022/06/27 00:34:03;;;;;;;8.97;3.10;;;25.30;72.60;;;;;;4989639;28;20205;-77
2022/06/27 00:36:31;;;;;;;8.77;3.33;;;25.20;73.10;;;;;;5008906;28;20652;-78
2022/06/27 00:38:58;;;;;;;6.97;3.40;;;25.20;73.60;;;;;;5012633;28;20208;-78
2022/06/27 00:41:26;;;;;;;8.00;3.40;;;25.10;73.80;;;;;;4996447;28;20564;-79
2022/06/27 00:43:53;;;;;;;10.03;3.67;;;25.00;73.90;;;;;;4992795;28;20275;-78
2022/06/27 00:46:21;;;;;;;9.93;4.13;;;25.00;74.40;;;;;;4994345;28;20196;-78
2022/06/27 00:48:49;;;;;;;7.40;3.57;;;24.90;74.50;;;;;;5002040;28;20227;-78
2022/06/27 00:51:17;;;;;;;9.53;3.70;;;24.90;74.70;;;;;;4989432;28;20283;-78
2022/06/27 00:53:45;;;;;;;10.50;4.17;;;24.90;74.90;;;;;;4995428;28;20204;-77
2022/06/27 00:56:14;;;;;;;7.77;4.17;;;24.90;74.90;;;;;;5024143;28;20204;-79
2022/06/27 00:58:41;;;;;;;8.87;3.57;;;24.90;75.10;;;;;;4999616;28;20205;-79
2022/06/27 01:01:09;;;;;;;10.53;4.03;;;24.90;75.30;;;;;;4978144;28;20817;-78
2022/06/27 01:03:37;;;;;;;14.93;4.53;;;24.80;75.40;;;;;;4974867;28;20208;-79
2022/06/27 01:06:04;;;;;;;10.83;3.77;;;24.80;75.50;;;;;;4993944;28;20236;-77
2022/06/27 01:08:32;;;;;;;8.20;4.13;;;24.80;75.60;;;;;;4990842;28;20661;-77
2022/06/27 01:11:00;;;;;;;8.93;3.47;;;24.80;75.80;;;;;;4980067;28;20219;-78
2022/06/27 01:13:29;;;;;;;8.93;3.87;;;24.80;75.80;;;;;;5006181;28;20641;-78
2022/06/27 01:15:57;;;;;;;6.77;3.37;;;24.80;76.10;;;;;;4995953;28;20215;-78
2022/06/27 01:18:25;;;;;;;7.80;3.73;;;24.80;76.20;;;;;;4990463;28;20254;-78
2022/06/27 01:20:52;;;;;;;10.10;3.60;;;24.80;76.40;;;;;;5007796;28;20209;-78
2022/06/27 01:23:19;;;;;;;10.50;4.63;;;24.70;76.40;;;;;;5007441;28;20205;-78
2022/06/27 01:25:47;;;;;;;8.13;3.37;;;24.80;76.40;;;;;;4986389;28;20319;-79
2022/06/27 01:28:15;;;;;;;9.10;3.23;;;24.80;76.30;;;;;;4996628;28;20212;-79
2022/06/27 01:30:43;;;;;;;8.70;3.20;;;24.80;76.30;;;;;;4996131;28;20240;-78
2022/06/27 01:33:10;;;;;;;8.03;3.67;;;24.80;76.10;;;;;;4991783;28;20195;-78
2022/06/27 01:35:38;;;;;;;8.57;3.70;;;24.80;76.00;;;;;;4995317;28;20541;-78
2022/06/27 01:38:06;;;;;;;9.27;3.93;;;24.80;76.00;;;;;;4998037;28;20227;-78
2022/06/27 01:40:34;;;;;;;7.17;3.43;;;24.70;76.10;;;;;;5002222;28;20225;-79
2022/06/27 01:43:02;;;;;;;8.70;3.53;;;24.70;76.50;;;;;;5004484;28;20212;-78
2022/06/27 01:45:29;;;;;;;8.20;3.93;;;24.70;76.60;;;;;;5002047;28;20294;-78
2022/06/27 01:47:56;;;;;;;11.20;4.27;;;24.60;76.80;;;;;;5002276;28;20209;-78
2022/06/27 01:50:30;;;;;;;7.50;3.40;;;24.60;76.80;;;;;;5009151;28;20259;-78
2022/06/27 01:53:00;;;;;;;4.87;3.43;;;24.60;77.00;;;;;;5008040;28;20211;-78
2022/06/27 01:55:28;;;;;;;8.17;4.30;;;24.50;77.10;;;;;;4993780;28;20211;-78
2022/06/27 01:57:57;;;;;;;9.87;3.53;;;24.50;77.50;;;;;;4987134;28;20281;-80
2022/06/27 02:00:24;;;;;;;10.50;3.60;;;24.50;77.70;;;;;;5019936;28;20381;-78
2022/06/27 02:02:57;;;;;;;10.70;4.53;;;24.50;78.20;;;;;;5004488;28;20212;-78
2022/06/27 02:05:27;;;;;;;10.43;4.33;;;24.40;78.40;;;;;;5007056;28;20209;-79
2022/06/27 02:07:57;;;;;;;10.23;3.73;;;24.40;78.80;;;;;;4994127;28;20587;-79
2022/06/27 02:10:24;;;;;;;11.07;4.20;;;24.40;79.10;;;;;;5006349;28;20316;-79
2022/06/27 02:12:51;;;;;;;12.30;4.03;;;24.40;79.50;;;;;;4997121;28;20217;-80
2022/06/27 02:15:20;;;;;;;5.87;3.67;;;24.40;79.70;;;;;;4991617;28;20231;-79
2022/06/27 02:17:49;;;;;;;8.37;4.83;;;24.40;79.60;;;;;;4997230;28;20312;-78
2022/06/27 02:20:16;;;;;;;10.60;4.47;;;24.40;79.90;;;;;;5003270;28;20715;-79
2022/06/27 02:22:44;;;;;;;10.50;4.23;;;24.50;80.40;;;;;;5007212;28;20216;-78
2022/06/27 02:25:12;;;;;;;12.27;4.13;;;24.50;80.70;;;;;;4999229;28;20222;-79
2022/06/27 02:27:40;;;;;;;9.90;4.93;;;24.50;81.00;;;;;;4999086;28;20215;-79
2022/06/27 02:30:14;;;;;;;6.80;4.07;;;24.50;81.50;;;;;;4995946;28;20275;-79
2022/06/27 02:32:41;;;;;;;12.90;4.90;;;24.50;81.80;;;;;;4971188;28;20299;-78
2022/06/27 02:35:09;;;;;;;7.83;4.40;;;24.50;82.40;;;;;;5003339;28;20211;-78
2022/06/27 02:37:38;;;;;;;9.97;4.77;;;24.50;82.50;;;;;;5002162;28;20230;-79
2022/06/27 02:40:08;;;;;;;10.30;3.67;;;24.50;82.70;;;;;;5010210;28;20215;-80
2022/06/27 02:42:35;;;;;;;11.30;4.40;;;24.50;82.90;;;;;;5003733;28;20226;-78
2022/06/27 02:45:03;;;;;;;6.37;4.47;;;24.50;83.10;;;;;;5014715;28;20226;-80
2022/06/27 02:47:33;;;;;;;11.83;4.90;;;24.50;83.30;;;;;;5014330;28;20226;-78
2022/06/27 02:50:02;;;;;;;12.73;4.83;;;24.60;83.70;;;;;;5007358;28;20232;-78
2022/06/27 02:52:45;;;;;;;10.17;4.60;;;24.60;83.70;;;;;;4998249;28;20209;-79
2022/06/27 02:55:19;;;;;;;6.10;4.73;;;24.60;83.80;;;;;;5009473;28;20652;-79
2022/06/27 02:58:24;;;;;;;8.20;4.77;;;24.60;84.40;;;;;;4996943;28;20200;-79
2022/06/27 03:00:58;;;;;;;8.87;4.93;;;24.60;84.50;;;;;;5000428;28;20211;-79
2022/06/27 03:03:27;;;;;;;11.93;4.87;;;24.60;84.60;;;;;;5008278;28;20213;-79
2022/06/27 03:06:02;;;;;;;9.53;4.27;;;24.60;84.90;;;;;;5004732;28;20603;-79
2022/06/27 03:08:38;;;;;;;8.83;4.47;;;24.60;85.00;;;;;;4985531;28;20213;-79
2022/06/27 03:11:11;;;;;;;12.57;4.80;;;24.70;85.20;;;;;;4983526;28;20204;-80
2022/06/27 03:13:39;;;;;;;8.70;4.83;;;24.70;85.10;;;;;;4983418;28;20197;-79
2022/06/27 03:16:08;;;;;;;10.10;4.50;;;24.70;85.00;;;;;;4982575;28;20276;-79
2022/06/27 03:18:35;;;;;;;10.30;5.37;;;24.70;85.00;;;;;;5001035;28;20664;-78
2022/06/27 03:21:11;;;;;;;8.13;5.50;;;24.70;85.10;;;;;;4990736;28;20212;-79
2022/06/27 03:23:40;;;;;;;11.57;4.83;;;24.70;85.20;;;;;;5000066;28;20212;-79
2022/06/27 03:26:11;;;;;;;6.97;4.83;;;24.70;85.00;;;;;;4998498;28;20547;-79
2022/06/27 03:28:38;;;;;;;8.33;4.23;;;24.70;84.80;;;;;;5003068;28;20199;-79
2022/06/27 03:31:06;;;;;;;8.43;4.50;;;24.70;84.70;;;;;;4989111;28;20244;-79
2022/06/27 03:33:38;;;;;;;8.00;4.20;;;24.70;84.30;;;;;;4999373;28;20603;-78
2022/06/27 03:36:20;;;;;;;7.47;4.93;;;24.70;84.20;;;;;;4988688;28;20250;-78
2022/06/27 03:38:48;;;;;;;10.90;4.63;;;24.70;84.20;;;;;;4993425;28;20201;-79
2022/06/27 03:41:15;;;;;;;12.70;4.50;;;24.70;84.10;;;;;;4981262;28;20661;-79
2022/06/27 03:43:42;;;;;;;12.20;5.00;;;24.60;83.90;;;;;;5011785;28;20208;-79
2022/06/27 03:46:10;;;;;;;8.07;5.47;;;24.60;83.70;;;;;;5021643;28;20195;-79
2022/06/27 03:51:45;;;;;;;7.77;4.50;;;24.60;84.20;;;;;;5019360;28;20214;-79
2022/06/27 03:54:13;;;;;;;10.63;5.57;;;24.60;84.30;;;;;;4997457;28;20201;-79
2022/06/27 03:56:40;;;;;;;10.57;5.17;;;24.60;84.30;;;;;;5021799;28;20592;-79
2022/06/27 03:59:11;;;;;;;13.03;4.97;;;24.60;84.10;;;;;;5010767;28;20225;-80
2022/06/27 04:01:40;;;;;;;6.40;4.47;;;24.60;83.80;;;;;;4998400;28;20290;-79
2022/06/27 04:04:09;;;;;;;11.27;5.40;;;24.50;83.40;;;;;;5023373;28;20215;-79
2022/06/27 04:06:39;;;;;;;8.97;5.53;;;24.60;84.00;;;;;;4995037;28;20209;-79
2022/06/27 04:09:10;;;;;;;7.63;4.73;;;24.60;84.40;;;;;;5011922;28;20262;-79
2022/06/27 04:11:38;;;;;;;10.97;5.50;;;24.60;84.50;;;;;;4997162;28;20223;-79
2022/06/27 04:14:12;;;;;;;9.87;5.20;;;24.60;84.60;;;;;;4997501;28;20291;-79
2022/06/27 04:16:39;;;;;;;12.90;6.40;;;24.70;84.90;;;;;;5007241;28;20568;-79
2022/06/27 04:19:25;;;;;;;11.90;5.73;;;24.80;85.50;;;;;;5006255;28;20621;-78
2022/06/27 04:22:08;;;;;;;11.17;4.90;;;24.80;85.50;;;;;;5002315;28;20217;-79
2022/06/27 04:24:55;;;;;;;9.80;5.30;;;24.90;85.20;;;;;;4999090;28;20547;-80
2022/06/27 04:27:37;;;;;;;9.47;4.90;;;24.90;84.80;;;;;;5014185;28;20306;-79
2022/06/27 04:30:08;;;;;;;13.30;5.17;;;24.90;84.70;;;;;;5000627;28;20294;-79
2022/06/27 04:32:36;;;;;;;7.90;5.17;;;25.00;84.80;;;;;;4996345;28;20217;-79
2022/06/27 04:35:04;;;;;;;11.27;6.10;;;25.00;84.80;;;;;;4978196;28;20227;-79
2022/06/27 04:37:31;;;;;;;10.37;5.67;;;25.10;84.80;;;;;;5013209;28;20311;-78
2022/06/27 04:40:28;;;;;;;8.70;5.10;;;25.20;84.80;;;;;;4995019;28;20224;-79
2022/06/27 04:42:56;;;;;;;10.40;5.60;;;25.30;84.70;;;;;;4978294;28;20531;-79
2022/06/27 04:45:25;;;;;;;11.00;5.90;;;25.40;84.70;;;;;;4988638;28;20216;-79
2022/06/27 04:48:00;;;;;;;10.50;5.30;;;25.40;84.70;;;;;;4997579;28;20308;-79
2022/06/27 04:50:28;;;;;;;14.00;5.23;;;25.50;84.80;;;;;;5008587;28;20217;-79
2022/06/27 04:52:58;;;;;;;13.03;6.00;;;25.60;84.70;;;;;;4985307;28;20204;-79
2022/06/27 04:55:26;;;;;;;11.00;5.80;;;25.60;84.40;;;;;;5010732;28;20648;-79
2022/06/27 04:57:55;;;;;;;11.33;4.90;;;25.80;84.40;;;;;;4992448;28;20293;-79
2022/06/27 05:00:22;;;;;;;10.97;5.57;;;25.80;84.20;;;;;;4992237;28;20305;-79
2022/06/27 05:02:59;;;;;;;10.80;5.80;;;25.90;84.10;;;;;;4996493;28;20214;-79
2022/06/27 05:05:28;;;;;;;11.27;5.13;;;26.00;83.90;;;;;;4995816;28;20576;-79
2022/06/27 05:07:57;;;;;;;12.70;5.20;;;26.10;83.40;;;;;;4979498;28;20260;-79
2022/06/27 05:10:24;;;;;;;13.47;4.90;;;26.20;82.50;;;;;;5006197;28;20254;-79
2022/06/27 05:12:52;;;;;;;13.10;5.20;;;26.20;81.50;;;;;;4988469;28;20236;-79
2022/06/27 05:15:19;;;;;;;10.13;5.23;;;26.30;81.00;;;;;;4999711;28;20203;-78
2022/06/27 05:17:47;;;;;;;10.83;5.17;;;26.30;80.50;;;;;;5008389;28;20338;-79
2022/06/27 05:20:17;;;;;;;11.20;5.13;;;26.30;80.30;;;;;;4998420;28;20216;-78
2022/06/27 05:22:44;;;;;;;9.77;4.87;;;26.30;80.00;;;;;;4984038;28;20644;-79
2022/06/27 05:25:12;;;;;;;10.03;5.17;;;26.40;79.80;;;;;;4985100;28;20935;-79
2022/06/27 05:27:40;;;;;;;13.07;5.43;;;26.40;79.60;;;;;;4993909;28;20204;-79
2022/06/27 05:30:08;;;;;;;11.03;5.20;;;26.50;79.60;;;;;;5010000;28;20224;-78
2022/06/27 05:32:37;;;;;;;17.43;5.47;;;26.50;79.70;;;;;;4978624;28;20279;-78
2022/06/27 05:35:06;;;;;;;10.37;5.00;;;26.60;79.70;;;;;;5002602;28;20228;-79
2022/06/27 05:37:38;;;;;;;15.93;6.10;;;26.70;79.70;;;;;;4993817;28;20251;-79
2022/06/27 05:40:08;;;;;;;9.13;5.43;;;26.80;79.80;;;;;;5010899;28;20221;-78
2022/06/27 05:42:36;;;;;;;11.80;5.37;;;26.80;79.80;;;;;;4995093;28;20310;-79
2022/06/27 05:45:04;;;;;;;10.10;5.60;;;26.90;80.00;;;;;;4990931;28;20208;-79
2022/06/27 05:47:40;;;;;;;15.23;6.00;;;27.10;80.20;;;;;;4979416;28;20217;-79
2022/06/27 05:50:20;;;;;;;11.87;5.57;;;27.20;80.00;;;;;;4993310;28;20686;-78
2022/06/27 05:52:49;;;;;;;9.77;6.70;;;27.30;79.80;;;;;;5001114;28;20205;-78
2022/06/27 05:55:17;;;;;;;12.17;6.63;;;27.40;79.70;;;;;;5000481;28;20495;-79
2022/06/27 05:57:44;;;;;;;10.97;6.40;;;27.50;79.70;;;;;;5021582;28;21732;-79
2022/06/27 06:00:13;;;;;;;15.47;6.63;;;27.60;79.70;;;;;;5005002;28;20322;-79
2022/06/27 06:02:40;;;;;;;12.03;6.50;;;27.70;79.60;;;;;;5009887;28;20288;-79
2022/06/27 06:05:13;;;;;;;10.13;5.80;;;27.80;79.50;;;;;;4995078;28;20303;-79
2022/06/27 06:07:43;;;;;;;12.33;5.57;;;27.90;79.20;;;;;;5017322;28;20617;-79
2022/06/27 06:10:10;;;;;;;10.00;5.63;;;28.10;78.80;;;;;;5006137;28;20219;-79
2022/06/27 06:12:38;;;;;;;10.27;5.40;;;28.20;78.50;;;;;;5002808;28;20294;-79
2022/06/27 06:15:06;;;;;;;14.40;5.73;;;28.30;78.30;;;;;;5024284;28;20254;-79
2022/06/27 06:17:34;;;;;;;11.37;4.60;;;28.50;78.20;;;;;;5000172;28;20630;-79
2022/06/27 06:20:06;;;;;;;12.10;5.40;;;28.70;78.00;;;;;;4979031;28;20712;-79
2022/06/27 06:22:34;;;;;;;10.83;5.63;;;28.80;77.80;;;;;;4988125;28;20847;-79
2022/06/27 06:25:02;;;;;;;11.83;5.20;;;28.90;77.40;;;;;;5009387;28;20584;-79
2022/06/27 06:27:29;;;;;;;10.00;5.23;;;29.10;77.10;;;;;;5008044;28;20292;-79
2022/06/27 06:29:56;;;;;;;22.37;12.40;;;29.30;76.60;;;;;;4995339;28;20229;-80
2022/06/27 06:32:25;;;;;;;9.17;5.27;;;29.50;75.90;;;;;;4999861;28;20200;-80
2022/06/27 06:34:52;;;;;;;11.90;8.20;;;29.60;75.40;;;;;;5010023;28;20224;-79
2022/06/27 06:37:20;;;;;;;9.53;6.37;;;29.60;75.10;;;;;;4990396;28;20212;-79
2022/06/27 06:39:47;;;;;;;10.13;4.37;;;29.70;75.20;;;;;;4999779;28;20644;-79
2022/06/27 06:42:14;;;;;;;11.00;4.40;;;29.70;75.90;;;;;;5014908;28;20308;-79
2022/06/27 06:45:16;;;;;;;10.37;4.00;;;29.80;76.20;;;;;;4979702;28;20201;-79
2022/06/27 06:47:58;;;;;;;12.93;4.50;;;29.80;76.10;;;;;;4984271;28;20208;-79
2022/06/27 06:50:28;;;;;;;12.70;5.10;;;29.90;75.90;;;;;;4997803;28;20239;-80
2022/06/27 06:52:56;;;;;;;9.83;4.27;;;30.10;75.40;;;;;;4981231;28;20205;-80
2022/06/27 06:55:24;;;;;;;9.30;4.57;;;30.10;74.70;;;;;;4983277;28;20336;-79
2022/06/27 06:57:51;;;;;;;15.43;4.90;;;30.20;74.10;;;;;;5003063;28;20629;-79
2022/06/27 07:00:19;;;;;;;15.33;4.50;;;30.30;74.20;;;;;;4992414;28;20284;-79
2022/06/27 07:02:50;;;;;;;13.93;3.80;;;30.40;73.80;;;;;;5011519;28;20208;-79
2022/06/27 07:05:19;;;;;;;12.10;4.13;;;30.60;73.60;;;;;;4998892;28;20307;-79
2022/06/27 07:07:51;;;;;;;10.17;4.07;;;30.70;72.90;;;;;;5004873;28;20696;-81
2022/06/27 07:10:19;;;;;;;7.80;3.87;;;30.70;72.50;;;;;;4990548;28;20216;-79
2022/06/27 07:12:46;;;;;;;12.90;4.33;;;30.70;72.60;;;;;;4997157;28;20224;-80
2022/06/27 07:15:14;;;;;;;11.53;4.17;;;30.90;72.60;;;;;;4990917;28;20229;-80
2022/06/27 07:17:44;;;;;;;11.23;3.80;;;31.10;72.30;;;;;;5004927;28;20549;-81
2022/06/27 07:20:13;;;;;;;17.93;4.80;;;31.20;71.50;;;;;;4977419;28;20215;-79
2022/06/27 07:22:42;;;;;;;12.43;4.70;;;31.40;70.90;;;;;;5010461;28;20287;-79
2022/06/27 07:25:09;;;;;;;10.90;3.70;;;31.60;70.50;;;;;;4989322;28;20211;-79
2022/06/27 07:27:39;;;;;;;14.13;4.03;;;31.80;69.50;;;;;;4990662;28;20235;-81
2022/06/27 07:30:09;;;;;;;12.13;4.87;;;31.90;68.80;;;;;;4997368;28;20225;-81
2022/06/27 07:32:39;;;;;;;13.00;4.00;;;32.00;68.40;;;;;;4998441;28;20570;-80
2022/06/27 07:35:12;;;;;;;8.27;3.83;;;32.10;68.20;;;;;;4980940;28;20223;-80
2022/06/27 07:37:43;;;;;;;11.80;4.47;;;32.00;68.30;;;;;;4995190;28;20288;-79
2022/06/27 07:40:12;;;;;;;12.20;4.40;;;32.10;67.30;;;;;;5006091;28;20641;-80
2022/06/27 07:42:47;;;;;;;15.23;4.23;;;32.10;67.60;;;;;;4989245;28;20216;-80
2022/06/27 07:45:21;;;;;;;7.87;3.50;;;32.20;67.40;;;;;;4981504;28;20236;-79
2022/06/27 07:47:49;;;;;;;15.40;3.70;;;32.30;67.40;;;;;;4997542;28;20581;-78
2022/06/27 07:53:12;;;;;;;15.80;4.50;;;32.60;65.30;;;;;;5011994;28;20215;-79
2022/06/27 07:55:51;;;;;;;12.73;3.93;;;32.70;64.70;;;;;;5012518;28;20291;-81
2022/06/27 07:58:30;;;;;;;10.00;4.60;;;32.80;64.40;;;;;;4989040;28;20274;-79
2022/06/27 08:00:59;;;;;;;10.53;4.17;;;32.80;64.60;;;;;;5008099;28;20232;-81
2022/06/27 08:03:47;;;;;;;10.27;4.30;;;32.90;64.00;;;;;;4990540;28;20200;-80
2022/06/27 08:06:17;;;;;;;14.67;4.43;;;33.00;62.50;;;;;;5007656;28;20200;-79
2022/06/27 08:08:47;;;;;;;13.00;4.00;;;32.90;63.10;;;;;;4995137;28;20208;-79
2022/06/27 08:11:23;;;;;;;12.30;3.90;;;33.00;63.30;;;;;;4973883;28;20216;-80
2022/06/27 08:13:52;;;;;;;12.90;4.03;;;33.10;62.00;;;;;;5008268;28;20537;-78
2022/06/27 08:16:22;;;;;;;11.77;4.27;;;33.10;59.80;;;;;;4995974;28;20643;-81
2022/06/27 08:18:51;;;;;;;15.60;3.97;;;33.00;59.70;;;;;;4995966;28;20204;-79
2022/06/27 08:21:27;;;;;;;11.27;4.13;;;33.10;60.30;;;;;;5003003;28;20227;-79
2022/06/27 08:23:59;;;;;;;15.87;3.30;;;33.20;60.40;;;;;;5018428;28;20561;-79
2022/06/27 08:26:28;;;;;;;16.90;4.23;;;33.30;59.20;;;;;;4996733;28;20254;-79
2022/06/27 08:28:58;;;;;;;11.13;4.03;;;33.30;58.70;;;;;;4993336;28;20495;-79
2022/06/27 08:31:27;;;;;;;17.43;3.90;;;33.40;59.30;;;;;;4994343;28;20232;-80
2022/06/27 08:34:04;;;;;;;13.50;4.00;;;33.50;60.00;;;;;;4978756;28;20287;-79
2022/06/27 08:36:33;;;;;;;13.60;3.30;;;33.50;59.90;;;;;;4998654;28;20200;-83
2022/06/27 08:39:07;;;;;;;13.23;4.07;;;33.70;58.10;;;;;;5007472;28;20731;-79
2022/06/27 08:41:35;;;;;;;15.40;4.00;;;33.90;57.00;;;;;;5018434;28;20573;-79
2022/06/27 08:44:04;;;;;;;13.97;3.83;;;34.10;54.10;;;;;;5000484;28;20236;-79
2022/06/27 08:46:33;;;;;;;11.07;4.30;;;34.20;53.80;;;;;;5000154;28;20644;-80
2022/06/27 08:49:02;;;;;;;18.87;4.00;;;34.30;54.20;;;;;;4995218;28;20215;-80
2022/06/27 08:51:31;;;;;;;18.90;4.40;;;34.40;55.30;;;;;;4996244;28;20217;-79
2022/06/27 08:53:59;;;;;;;14.13;4.17;;;34.60;54.50;;;;;;4993633;28;20287;-79
2022/06/27 08:56:29;;;;;;;19.53;4.90;;;34.60;54.90;;;;;;4995446;28;20224;-79
2022/06/27 08:58:59;;;;;;;13.80;4.03;;;34.70;55.10;;;;;;5007206;28;20567;-79
2022/06/27 09:01:30;;;;;;;25.77;4.87;;;34.80;54.30;;;;;;4998038;28;20212;-80
2022/06/27 09:04:00;;;;;;;12.50;4.13;;;34.90;52.70;;;;;;5005803;28;20204;-81
2022/06/27 09:06:32;;;;;;;17.43;3.57;;;35.00;51.60;;;;;;4987175;28;20213;-80
2022/06/27 09:09:08;;;;;;;13.40;4.90;;;35.20;52.10;;;;;;4998897;28;20279;-79
2022/06/27 09:11:41;;;;;;;14.50;4.57;;;35.30;52.50;;;;;;4990720;28;20767;-79
2022/06/27 09:14:33;;;;;;;24.53;4.63;;;35.40;52.60;;;;;;5006849;28;20267;-80
2022/06/27 09:17:04;;;;;;;14.17;4.00;;;35.40;52.00;;;;;;5010193;28;20292;-80
2022/06/27 09:19:53;;;;;;;12.60;3.70;;;35.40;51.60;;;;;;5010417;28;20214;-80
2022/06/27 09:22:23;;;;;;;14.93;4.17;;;35.40;52.90;;;;;;4980954;28;20228;-80
2022/06/27 09:25:04;;;;;;;25.53;4.50;;;35.40;52.30;;;;;;5007448;28;20222;-82
2022/06/27 09:27:45;;;;;;;17.13;4.23;;;35.50;51.20;;;;;;5003395;28;20200;-81
2022/06/27 09:30:21;;;;;;;16.43;4.13;;;35.50;50.90;;;;;;5012006;28;20208;-81
2022/06/27 09:32:52;;;;;;;17.03;4.33;;;35.60;50.20;;;;;;5004466;28;20626;-81
2022/06/27 09:35:25;;;;;;;13.53;4.40;;;35.70;48.70;;;;;;4993352;28;20268;-82
2022/06/27 09:37:59;;;;;;;11.40;3.47;;;36.00;49.00;;;;;;4988643;28;20192;-81
2022/06/27 09:40:29;;;;;;;21.47;4.73;;;36.10;49.70;;;;;;5001139;28;20196;-81
2022/06/27 09:43:04;;;;;;;10.83;4.27;;;36.20;49.10;;;;;;5007128;28;20200;-81
2022/06/27 09:45:33;;;;;;;17.57;4.53;;;36.20;48.60;;;;;;5005854;28;20211;-81
2022/06/27 09:48:06;;;;;;;13.60;3.90;;;36.20;48.10;;;;;;5002430;28;20196;-80
2022/06/27 09:50:39;;;;;;;14.13;4.30;;;36.10;48.90;;;;;;5007549;28;20207;-80
2022/06/27 09:53:07;;;;;;;12.07;3.93;;;36.10;48.30;;;;;;4999102;28;20196;-79
2022/06/27 09:55:36;;;;;;;21.13;5.33;;;36.20;48.30;;;;;;4992554;28;20219;-79
2022/06/27 09:58:07;;;;;;;17.47;4.27;;;36.30;47.70;;;;;;5005185;28;20209;-79
2022/06/27 10:00:36;;;;;;;17.67;4.43;;;36.50;46.90;;;;;;5006191;28;20201;-80
2022/06/27 10:03:05;;;;;;;16.70;4.22;;;36.70;45.70;;;;;;4997521;28;20778;-82
2022/06/27 10:05:44;;;;;;;16.10;4.47;;;36.80;43.70;;;;;;5015480;28;20204;-84
2022/06/27 10:08:12;;;;;;;20.97;4.30;;;36.70;45.00;;;;;;4993677;28;20590;-83
2022/06/27 10:11:08;;;;;;;14.63;4.07;;;36.80;44.70;;;;;;5011170;28;20205;-79
2022/06/27 10:13:42;;;;;;;24.25;4.55;;;36.90;44.10;;;;;;4983832;28;20201;-80
2022/06/27 10:16:13;;;;;;;17.65;5.22;;;37.00;45.10;;;;;;5012275;28;20288;-81
2022/06/27 10:19:03;;;;;;;15.53;4.27;;;37.00;43.70;;;;;;4994365;28;20227;-81
2022/06/27 10:21:41;;;;;;;17.07;4.80;;;37.00;44.50;;;;;;5007873;28;20540;-80
2022/06/27 10:24:27;;;;;;;20.20;4.37;;;37.20;44.30;;;;;;4992360;28;20624;-79
2022/06/27 10:27:00;;;;;;;16.45;4.20;;;37.40;43.90;;;;;;4994918;28;20263;-79
2022/06/27 10:29:32;;;;;;;18.98;4.68;;;37.50;42.60;;;;;;5011654;28;20690;-80
2022/06/27 10:32:01;;;;;;;18.45;4.70;;;37.50;42.70;;;;;;4993999;28;20225;-79
2022/06/27 10:34:49;;;;;;;17.90;4.55;;;37.50;43.40;;;;;;5000424;28;20215;-80
2022/06/27 10:37:25;;;;;;;21.87;3.83;;;37.60;41.40;;;;;;4986579;28;20208;-80
2022/06/27 10:39:54;;;;;;;27.65;4.65;;;37.60;42.00;;;;;;5004168;28;20228;-80
2022/06/27 10:42:49;;;;;;;16.85;4.20;;;37.50;42.30;;;;;;4997130;28;20644;-79
2022/06/27 10:45:19;;;;;;;28.00;5.15;;;37.60;42.00;;;;;;5013534;28;20242;-80
2022/06/27 10:47:47;;;;;;;21.15;4.63;;;37.60;42.00;;;;;;5011767;28;20259;-80
2022/06/27 10:50:16;;;;;;;17.95;4.68;;;37.60;41.20;;;;;;4996766;28;20205;-81
2022/06/27 10:52:47;;;;;;;25.92;5.95;;;37.60;42.20;;;;;;5009464;28;20247;-79
2022/06/27 10:55:24;;;;;;;14.82;4.95;;;37.60;41.90;;;;;;4998139;28;20259;-81
2022/06/27 10:57:54;;;;;;;17.23;3.97;;;37.70;42.70;;;;;;5006668;28;20207;-79
2022/06/27 11:00:42;;;;;;;19.58;4.65;;;37.80;43.20;;;;;;5005138;28;20237;-80
2022/06/27 11:03:29;;;;;;;28.67;4.57;;;37.90;42.30;;;;;;4990340;28;20213;-80
2022/06/27 11:06:00;;;;;;;19.42;5.22;;;37.90;41.10;;;;;;4995309;28;20192;-80
2022/06/27 11:08:28;;;;;;;17.25;4.35;;;38.00;41.00;;;;;;4997787;28;20239;-80
2022/06/27 11:10:55;;;;;;;22.25;4.95;;;38.00;41.20;;;;;;5005216;28;20210;-80
2022/06/27 11:13:43;;;;;;;15.35;5.10;;;38.00;41.70;;;;;;4984895;28;20538;-79
2022/06/27 11:16:22;;;;;;;16.10;4.30;;;37.90;41.20;;;;;;4983209;28;20207;-80
2022/06/27 11:19:02;;;;;;;20.80;4.75;;;37.80;42.80;;;;;;5016114;28;20670;-79
2022/06/27 11:21:35;;;;;;;18.50;5.05;;;37.80;41.90;;;;;;4979308;28;20217;-81
2022/06/27 11:24:04;;;;;;;18.00;4.05;;;37.80;42.90;;;;;;4993678;28;20201;-79
2022/06/27 11:26:34;;;;;;;19.88;5.65;;;37.80;43.10;;;;;;4972272;28;20236;-80
2022/06/27 11:32:06;;;;;;;26.23;4.80;;;38.00;39.70;;;;;;5012194;28;20307;-80
2022/06/27 11:34:40;;;;;;;16.38;4.57;;;38.00;41.10;;;;;;4995083;28;20197;-80
2022/06/27 11:37:16;;;;;;;15.77;4.13;;;38.00;40.10;;;;;;5010457;28;20274;-80
2022/06/27 11:40:05;;;;;;;25.65;5.75;;;38.10;40.50;;;;;;5007535;28;20279;-80
2022/06/27 11:42:40;;;;;;;20.73;4.47;;;38.20;41.30;;;;;;4989443;28;20200;-80
2022/06/27 11:45:13;;;;;;;21.40;4.75;;;38.20;40.60;;;;;;4996326;28;20235;-81
2022/06/27 11:47:43;;;;;;;21.88;5.35;;;38.30;39.90;;;;;;4996198;28;20217;-80
2022/06/27 11:50:16;;;;;;;26.75;5.05;;;38.40;39.70;;;;;;4996640;28;20884;-81
2022/06/27 11:52:49;;;;;;;18.35;5.28;;;38.50;38.60;;;;;;4997911;28;20693;-79
2022/06/27 11:55:22;;;;;;;16.80;5.35;;;38.60;38.30;;;;;;4982163;28;20215;-81
2022/06/27 11:57:57;;;;;;;28.63;5.25;;;38.60;37.80;;;;;;5008344;28;20652;-81
2022/06/27 12:00:27;;;;;;;20.77;5.10;;;38.70;37.40;;;;;;4996682;28;20612;-80
2022/06/27 12:03:11;;;;;;;21.25;4.55;;;38.60;37.60;;;;;;4990592;28;20198;-80
2022/06/27 12:05:39;;;;;;;22.10;4.95;;;38.60;36.80;;;;;;5007438;28;20205;-80
2022/06/27 12:08:09;;;;;;;24.35;4.78;;;38.70;37.20;;;;;;4987416;28;20236;-80
2022/06/27 12:11:17;;;;;;;20.75;5.20;;;38.70;36.00;;;;;;4995947;28;20215;-79
2022/06/27 12:13:40;;;;;;;22.35;5.30;;;38.70;36.10;;;;;;4990202;28;20204;-81
2022/06/27 12:16:10;;;;;;;24.38;5.00;;;38.60;36.00;;;;;;4992262;28;20295;-80
2022/06/27 12:18:51;;;;;;;19.05;5.32;;;38.60;35.30;;;;;;4994444;28;20230;-79
2022/06/27 12:21:20;;;;;;;19.92;4.97;;;38.60;35.50;;;;;;4988882;28;20201;-79
2022/06/27 12:23:48;;;;;;;15.32;5.05;;;38.50;34.70;;;;;;4996385;28;20644;-80
2022/06/27 12:26:15;;;;;;;28.23;5.00;;;38.40;35.50;;;;;;4990955;28;20252;-80
2022/06/27 12:28:43;;;;;;;24.88;5.93;;;38.40;35.00;;;;;;4990160;28;20584;-82
2022/06/27 12:31:10;;;;;;;25.40;4.55;;;38.40;35.40;;;;;;5002831;28;20591;-81
2022/06/27 12:33:38;;;;;;;25.35;5.30;;;38.30;35.30;;;;;;5001838;28;20602;-79
2022/06/27 12:36:05;;;;;;;18.40;5.13;;;38.30;35.30;;;;;;4999482;28;20202;-80
2022/06/27 12:38:32;;;;;;;21.92;4.85;;;38.30;34.20;;;;;;4995023;28;20204;-81
2022/06/27 12:41:11;;;;;;;24.02;5.97;;;38.10;35.80;;;;;;4989491;28;20204;-78
2022/06/27 12:43:43;;;;;;;14.38;4.35;;;38.10;35.90;;;;;;4988918;28;20283;-80
2022/06/27 12:46:11;;;;;;;20.17;5.43;;;38.10;35.20;;;;;;4986046;28;20232;-78
2022/06/27 12:48:42;;;;;;;17.90;5.20;;;38.00;35.50;;;;;;4998124;28;20757;-80
2022/06/27 12:51:11;;;;;;;19.85;4.40;;;37.90;36.60;;;;;;4977381;28;20194;-81
2022/06/27 12:53:38;;;;;;;20.40;6.80;;;37.80;37.20;;;;;;4994678;28;20211;-80
2022/06/27 12:56:07;;;;;;;24.38;4.80;;;37.70;36.30;;;;;;4990361;28;20626;-80
2022/06/27 12:58:34;;;;;;;20.17;5.03;;;37.80;36.80;;;;;;4994253;28;20201;-80
2022/06/27 13:01:03;;;;;;;17.63;4.30;;;37.90;36.40;;;;;;4984782;28;20204;-82
2022/06/27 13:03:30;;;;;;;20.83;4.53;;;38.00;34.80;;;;;;4985902;28;20201;-80
2022/06/27 13:05:58;;;;;;;21.52;5.30;;;38.00;34.20;;;;;;4994564;28;20197;-81
2022/06/27 13:08:25;;;;;;;21.67;5.00;;;37.90;35.00;;;;;;4975605;28;20291;-80